createdAt,value
2022-10-14T00:01:46.134Z,7.1
2022-10-14T00:17:28.356Z,7.04
2022-10-14T00:33:10.755Z,6.93
2022-10-14T00:48:52.987Z,6.79
2022-10-14T01:04:35.759Z,6.68
2022-10-14T01:20:18.771Z,6.52
2022-10-14T01:36:01.267Z,6.41
2022-10-14T01:51:44.226Z,6.31
2022-10-14T02:07:26.411Z,6.3
2022-10-14T02:23:09.459Z,6.28
2022-10-14T02:38:51.799Z,6.16
2022-10-14T02:54:34.705Z,6.16
2022-10-14T03:10:17.053Z,6.43
2022-10-14T03:26:00.109Z,6.74
2022-10-14T03:41:42.463Z,6.97
2022-10-14T03:57:24.920Z,7.19
2022-10-14T04:13:07.835Z,7.24
2022-10-14T04:28:49.985Z,7.23
2022-10-14T04:44:32.716Z,7.16
2022-10-14T05:00:15.441Z,7.22
2022-10-14T05:15:58.418Z,7.3
2022-10-14T05:31:40.849Z,7.45
2022-10-14T05:47:23.276Z,7.6
2022-10-14T06:03:06.130Z,7.84
2022-10-14T06:18:48.530Z,8.17
2022-10-14T06:34:31.182Z,8.53
2022-10-14T06:50:13.260Z,8.93
2022-10-14T07:05:56.222Z,9.39
2022-10-14T07:21:38.414Z,9.85
2022-10-14T07:37:20.926Z,10.42
2022-10-14T07:53:03.369Z,11.14
2022-10-14T08:08:45.948Z,11.75
2022-10-14T08:24:27.965Z,12.53
2022-10-14T08:40:10.420Z,13.4
2022-10-14T08:55:52.928Z,16.24
2022-10-14T09:11:35.396Z,17.99
2022-10-14T09:27:17.551Z,18.77
2022-10-14T09:43:00.484Z,18.7
2022-10-14T09:58:43.195Z,19.16
2022-10-14T10:14:25.315Z,21.13
2022-10-14T10:30:08.069Z,21.43
2022-10-14T10:45:50.365Z,21.11
2022-10-14T11:01:33.137Z,21.13
2022-10-14T11:17:15.884Z,21.49
2022-10-14T11:32:58.260Z,20.85
2022-10-14T11:48:40.391Z,19.84
2022-10-14T12:04:23.068Z,19.7
2022-10-14T12:20:06.018Z,19.29
2022-10-14T12:20:53.332Z,19.45
2022-10-14T12:36:35.806Z,18.59
2022-10-14T12:52:17.911Z,18.51
2022-10-14T13:08:00.697Z,18.73
2022-10-14T13:23:43.365Z,22.31
2022-10-14T13:39:26.107Z,23.86
2022-10-14T13:55:08.769Z,21.56
2022-10-14T14:10:51.540Z,20.07
2022-10-14T14:26:34.396Z,18.77
2022-10-14T14:42:17.177Z,18.11
2022-10-14T14:57:59.433Z,17.59
2022-10-14T15:13:41.614Z,17.6
2022-10-14T15:29:24.128Z,17.17
2022-10-14T15:45:06.853Z,16.34
2022-10-14T16:00:49.196Z,15.64
2022-10-14T16:16:31.685Z,15
2022-10-14T16:32:14.358Z,14.31
2022-10-14T16:47:57.143Z,13.71
2022-10-14T17:03:40.114Z,13.28
2022-10-14T17:19:22.485Z,13.06
2022-10-14T17:35:04.775Z,12.89
2022-10-14T17:50:47.581Z,12.83
2022-10-14T18:06:29.916Z,12.69
2022-10-14T18:22:12.240Z,12.47
2022-10-14T18:37:55.197Z,12.3
2022-10-14T18:53:37.255Z,12.02
2022-10-14T19:09:20.089Z,11.78
2022-10-14T19:25:02.746Z,11.56
2022-10-14T19:40:45.016Z,11.42
2022-10-14T19:56:27.983Z,11.38
2022-10-14T20:12:10.476Z,11.49
2022-10-14T20:27:52.941Z,11.7
2022-10-14T20:43:35.605Z,11.85
2022-10-14T20:59:17.936Z,11.93
2022-10-14T21:15:00.113Z,12.06
2022-10-14T21:30:42.883Z,12.1
2022-10-14T21:46:25.936Z,12.13
2022-10-14T22:02:08.125Z,12.17
2022-10-14T22:17:50.875Z,12.27
2022-10-14T22:33:33.424Z,12.26
2022-10-14T22:49:15.575Z,12.2
2022-10-14T23:04:58.028Z,12.14
2022-10-14T23:20:40.490Z,12.03
2022-10-14T23:36:22.751Z,12.01
2022-10-14T23:52:05.395Z,12.08
